Time;durP1;ratioP1;P1;durP2;ratioP2;P2;SDS_P1;SDS_P2;PMS_P1;PMS_P2;Temp;Humidity;BMP_temperature;BMP_pressure;BME280_temperature;BME280_humidity;BME280_pressure;Samples;Min_cycle;Max_cycle;Signal;HPM_P1;HPM_P2
2020/12/06 00:02:03;;;;;;;19.57;16.50;;;3.70;99.90;;;;;;5091196;28;20218;-38
2020/12/06 00:04:30;;;;;;;18.40;15.87;;;3.70;99.90;;;;;;5092769;28;20680;-38
2020/12/06 00:06:57;;;;;;;19.60;16.80;;;3.80;99.90;;;;;;5091258;28;20561;-38
2020/12/06 00:09:24;;;;;;;22.27;17.13;;;3.80;99.90;;;;;;5091020;28;20297;-38
2020/12/06 00:11:52;;;;;;;19.05;16.67;;;3.90;99.90;;;;;;5090787;28;20236;-38
2020/12/06 00:14:19;;;;;;;21.70;17.53;;;3.90;99.90;;;;;;5091634;28;20269;-38
2020/12/06 00:16:48;;;;;;;23.23;16.63;;;3.90;99.90;;;;;;5090802;28;20653;-38
2020/12/06 00:19:15;;;;;;;17.57;15.77;;;4.00;99.90;;;;;;5090748;28;20627;-38
2020/12/06 00:21:41;;;;;;;17.30;15.17;;;4.00;99.90;;;;;;5090737;28;20294;-38
2020/12/06 00:24:08;;;;;;;18.47;15.70;;;4.00;99.90;;;;;;5090908;28;20247;-37
2020/12/06 00:26:35;;;;;;;19.17;16.40;;;4.00;99.90;;;;;;5091119;28;20301;-39
2020/12/06 00:29:02;;;;;;;17.73;14.80;;;4.10;99.90;;;;;;5090859;28;20197;-38
2020/12/06 00:31:29;;;;;;;16.97;15.10;;;4.00;99.90;;;;;;5090796;28;20245;-37
2020/12/06 00:33:55;;;;;;;18.27;15.47;;;4.00;99.90;;;;;;5081925;28;20284;-39
2020/12/06 00:36:22;;;;;;;20.23;15.07;;;3.90;99.90;;;;;;5070365;28;20241;-40
2020/12/06 00:38:49;;;;;;;16.73;14.55;;;4.00;99.90;;;;;;5070352;28;20639;-38
2020/12/06 00:41:16;;;;;;;17.90;14.33;;;3.90;99.90;;;;;;5070454;28;20242;-38
2020/12/06 00:43:44;;;;;;;18.97;16.57;;;3.90;99.90;;;;;;5070810;28;20199;-39
2020/12/06 00:46:12;;;;;;;19.57;15.57;;;3.90;99.90;;;;;;5072725;28;20213;-39
2020/12/06 00:48:39;;;;;;;17.33;15.10;;;3.90;99.90;;;;;;5073756;28;20191;-39
2020/12/06 00:51:06;;;;;;;17.63;15.30;;;4.00;99.90;;;;;;5074364;28;20366;-38
2020/12/06 00:53:36;;;;;;;18.13;16.00;;;4.00;99.90;;;;;;5072572;28;20285;-39
2020/12/06 00:56:04;;;;;;;18.43;16.00;;;4.10;99.90;;;;;;5074094;28;20615;-39
2020/12/06 00:58:31;;;;;;;17.87;15.33;;;4.10;99.90;;;;;;5071995;28;20226;-40
2020/12/06 01:00:58;;;;;;;16.80;15.00;;;4.10;99.90;;;;;;5073540;28;20724;-38
2020/12/06 01:03:25;;;;;;;17.73;14.93;;;4.10;99.90;;;;;;5073919;28;20592;-39
2020/12/06 01:05:52;;;;;;;17.63;15.83;;;4.10;99.90;;;;;;5074033;28;20243;-39
2020/12/06 01:08:18;;;;;;;20.00;15.83;;;4.10;99.90;;;;;;5073234;28;20195;-40
2020/12/06 01:10:45;;;;;;;17.20;15.40;;;4.10;99.90;;;;;;5073657;28;20562;-38
2020/12/06 01:13:12;;;;;;;15.80;14.20;;;4.10;99.90;;;;;;5083279;28;20385;-38
2020/12/06 01:15:39;;;;;;;17.00;14.10;;;4.10;99.90;;;;;;5083465;28;20566;-39
2020/12/06 01:18:05;;;;;;;18.43;15.13;;;4.10;99.90;;;;;;5075545;28;20230;-39
2020/12/06 01:20:33;;;;;;;21.20;16.37;;;4.10;99.90;;;;;;5073413;28;20218;-39
2020/12/06 01:22:59;;;;;;;17.92;15.27;;;4.10;99.90;;;;;;5073226;28;20222;-39
2020/12/06 01:25:26;;;;;;;19.23;16.80;;;4.10;99.90;;;;;;5075634;28;20575;-39
2020/12/06 01:27:52;;;;;;;18.57;15.67;;;4.10;99.90;;;;;;5079536;28;20206;-39
2020/12/06 01:30:19;;;;;;;18.60;16.03;;;4.10;99.90;;;;;;5093250;28;20202;-40
2020/12/06 01:32:46;;;;;;;17.20;15.47;;;4.10;99.90;;;;;;5093501;28;20255;-40
2020/12/06 01:35:12;;;;;;;17.93;15.17;;;4.10;99.90;;;;;;5089252;28;20198;-39
2020/12/06 01:37:40;;;;;;;20.00;16.80;;;4.10;99.90;;;;;;5078079;28;20225;-39
2020/12/06 01:40:06;;;;;;;18.30;16.07;;;4.10;99.90;;;;;;5090197;28;20266;-39
2020/12/06 01:42:33;;;;;;;20.43;16.70;;;4.10;99.90;;;;;;5073026;28;20206;-38
2020/12/06 01:45:00;;;;;;;19.73;16.07;;;4.10;99.90;;;;;;5072974;28;20271;-39
2020/12/06 01:47:29;;;;;;;17.40;15.07;;;4.20;99.90;;;;;;5072966;28;20206;-40
2020/12/06 01:49:55;;;;;;;17.37;15.57;;;4.10;99.90;;;;;;5072917;28;20232;-39
2020/12/06 01:52:22;;;;;;;17.40;15.60;;;4.20;99.90;;;;;;5072701;28;20739;-39
2020/12/06 01:54:50;;;;;;;18.93;16.00;;;4.20;99.90;;;;;;5074201;28;20616;-39
2020/12/06 01:57:17;;;;;;;16.48;14.55;;;4.20;99.90;;;;;;5077576;28;20244;-39
2020/12/06 01:59:44;;;;;;;18.80;15.07;;;4.20;99.90;;;;;;5079954;28;20653;-39
2020/12/06 02:02:10;;;;;;;19.37;17.17;;;4.30;99.90;;;;;;5091408;28;20230;-40
2020/12/06 02:04:37;;;;;;;18.07;16.23;;;4.30;99.90;;;;;;5103610;28;20228;-39
2020/12/06 02:07:03;;;;;;;19.60;16.90;;;4.50;99.90;;;;;;5092424;28;20194;-40
2020/12/06 02:09:31;;;;;;;20.43;16.60;;;4.40;99.90;;;;;;5095262;28;20193;-39
2020/12/06 02:11:59;;;;;;;23.53;18.03;;;4.40;99.90;;;;;;5093022;28;20664;-39
2020/12/06 02:14:26;;;;;;;25.03;17.50;;;4.40;99.90;;;;;;5092888;28;20216;-40
2020/12/06 02:16:53;;;;;;;21.23;16.10;;;4.50;99.90;;;;;;5092656;28;20262;-39
2020/12/06 02:19:20;;;;;;;23.77;18.13;;;4.60;99.90;;;;;;5092388;28;20233;-39
2020/12/06 02:21:47;;;;;;;23.65;18.52;;;4.60;99.90;;;;;;5092823;28;20309;-39
2020/12/06 02:24:16;;;;;;;25.80;17.60;;;4.70;99.90;;;;;;5093530;28;20292;-38
2020/12/06 02:26:43;;;;;;;23.57;18.30;;;4.70;99.90;;;;;;5092622;28;20612;-39
2020/12/06 02:29:10;;;;;;;26.00;18.90;;;4.70;99.90;;;;;;5092610;28;20221;-39
2020/12/06 02:31:38;;;;;;;22.63;18.57;;;4.60;99.90;;;;;;5093058;28;20222;-40
2020/12/06 02:34:05;;;;;;;23.03;18.53;;;4.60;99.90;;;;;;5090960;28;20559;-39
2020/12/06 02:36:32;;;;;;;28.03;19.37;;;4.50;99.90;;;;;;5083071;28;20595;-39
2020/12/06 02:38:59;;;;;;;24.37;18.90;;;4.60;99.90;;;;;;5080993;28;20672;-39
2020/12/06 02:41:35;;;;;;;24.27;19.40;;;4.50;99.90;;;;;;5081415;28;20244;-39
2020/12/06 02:44:02;;;;;;;22.70;19.10;;;4.40;99.90;;;;;;5073615;28;20202;-40
2020/12/06 02:46:28;;;;;;;22.03;19.23;;;4.40;99.90;;;;;;5072425;28;20214;-39
2020/12/06 02:48:55;;;;;;;26.00;19.73;;;4.40;99.90;;;;;;5072432;28;20208;-39
2020/12/06 02:51:22;;;;;;;25.30;17.50;;;4.40;99.90;;;;;;5072648;28;20271;-39
2020/12/06 02:53:48;;;;;;;26.10;20.63;;;4.40;99.90;;;;;;5073295;28;20261;-40
2020/12/06 02:56:16;;;;;;;21.50;17.30;;;4.40;99.90;;;;;;5074482;28;20194;-39
2020/12/06 02:58:42;;;;;;;26.90;19.60;;;4.40;99.90;;;;;;5071248;28;20242;-40
2020/12/06 03:01:09;;;;;;;22.73;18.80;;;4.40;99.90;;;;;;5078171;28;20563;-39
2020/12/06 03:03:36;;;;;;;21.33;17.97;;;4.40;99.90;;;;;;5081471;28;20278;-39
2020/12/06 03:06:02;;;;;;;21.92;18.42;;;4.40;99.90;;;;;;5080567;28;20202;-39
2020/12/06 03:08:29;;;;;;;22.90;18.83;;;4.30;99.90;;;;;;5081631;28;20206;-39
2020/12/06 03:10:56;;;;;;;23.33;19.30;;;4.30;99.90;;;;;;5081872;28;20214;-38
2020/12/06 03:13:24;;;;;;;25.00;19.47;;;4.40;99.90;;;;;;5080477;28;20209;-38
2020/12/06 03:15:50;;;;;;;22.63;19.00;;;4.30;99.90;;;;;;5081430;28;20267;-38
2020/12/06 03:18:17;;;;;;;22.30;18.40;;;4.30;99.90;;;;;;5077770;28;20666;-38
2020/12/06 03:20:43;;;;;;;23.43;19.73;;;4.30;99.90;;;;;;5081186;28;20305;-40
2020/12/06 03:23:10;;;;;;;25.23;19.50;;;4.20;99.90;;;;;;5080416;28;20195;-39
2020/12/06 03:25:37;;;;;;;23.37;19.33;;;4.20;99.90;;;;;;5077657;28;20224;-38
2020/12/06 03:28:04;;;;;;;24.63;18.80;;;4.20;99.90;;;;;;5082748;28;20183;-38
2020/12/06 03:30:31;;;;;;;23.33;18.57;;;4.30;99.90;;;;;;5082670;28;20720;-39
2020/12/06 03:32:57;;;;;;;25.10;18.07;;;4.30;99.90;;;;;;5071577;28;20214;-38
2020/12/06 03:35:24;;;;;;;22.98;18.27;;;4.30;99.90;;;;;;5071471;28;20232;-38
2020/12/06 03:37:51;;;;;;;23.83;18.67;;;4.30;99.90;;;;;;5070969;28;20218;-39
2020/12/06 03:40:17;;;;;;;25.37;20.17;;;4.20;99.90;;;;;;5071225;28;20633;-38
2020/12/06 03:42:44;;;;;;;22.47;18.17;;;4.20;99.90;;;;;;5071412;28;20206;-38
2020/12/06 03:45:10;;;;;;;24.13;19.10;;;4.20;99.90;;;;;;5071266;28;20273;-38
2020/12/06 03:47:38;;;;;;;23.03;18.83;;;4.20;99.90;;;;;;5071272;28;20206;-39
2020/12/06 03:50:04;;;;;;;27.60;18.80;;;4.20;99.90;;;;;;5071274;28;20194;-38
2020/12/06 03:52:31;;;;;;;22.87;18.37;;;4.30;99.90;;;;;;5071373;28;20250;-38
2020/12/06 03:54:57;;;;;;;26.77;19.77;;;4.30;99.90;;;;;;5075319;28;20218;-38
2020/12/06 03:57:24;;;;;;;26.53;20.60;;;4.40;99.90;;;;;;5070901;28;20260;-38
2020/12/06 03:59:50;;;;;;;27.13;21.30;;;4.40;99.90;;;;;;5070869;28;20236;-39
2020/12/06 04:02:17;;;;;;;26.73;20.97;;;4.40;99.90;;;;;;5070906;28;20225;-39
2020/12/06 04:04:45;;;;;;;26.30;20.20;;;4.30;99.90;;;;;;5071087;28;20279;-38
2020/12/06 04:07:11;;;;;;;24.70;18.88;;;4.30;99.90;;;;;;5070866;28;20241;-38
2020/12/06 04:09:38;;;;;;;28.27;22.20;;;4.40;99.90;;;;;;5070847;28;20206;-38
2020/12/06 04:12:04;;;;;;;24.03;18.60;;;4.30;99.90;;;;;;5070820;28;20253;-38
2020/12/06 04:14:31;;;;;;;24.30;19.93;;;4.30;99.90;;;;;;5070943;28;20306;-39
2020/12/06 04:16:57;;;;;;;24.70;18.47;;;4.30;99.90;;;;;;5070767;28;20198;-38
2020/12/06 04:19:24;;;;;;;27.00;20.47;;;4.30;99.90;;;;;;5072512;28;20405;-38
2020/12/06 04:21:51;;;;;;;25.27;19.70;;;4.30;99.90;;;;;;5074836;28;20215;-39
2020/12/06 04:24:18;;;;;;;20.40;17.23;;;4.30;99.90;;;;;;5074859;28;20206;-39
2020/12/06 04:26:44;;;;;;;25.23;18.83;;;4.30;99.90;;;;;;5074553;28;20759;-38
2020/12/06 04:29:12;;;;;;;23.27;18.67;;;4.30;99.90;;;;;;5074495;28;20187;-39
2020/12/06 04:31:38;;;;;;;21.10;17.75;;;4.40;99.90;;;;;;5074803;28;20280;-38
2020/12/06 04:34:05;;;;;;;24.53;18.27;;;4.40;99.90;;;;;;5074696;28;20205;-38
2020/12/06 04:36:32;;;;;;;25.07;18.73;;;4.30;99.90;;;;;;5074549;28;20230;-38
2020/12/06 04:38:59;;;;;;;26.57;19.97;;;4.30;99.90;;;;;;5074541;28;20796;-38
2020/12/06 04:41:26;;;;;;;27.30;19.97;;;4.30;99.90;;;;;;5074383;28;20310;-39
2020/12/06 04:43:53;;;;;;;21.93;18.90;;;4.30;99.90;;;;;;5074419;28;20237;-38
2020/12/06 04:46:20;;;;;;;23.10;18.33;;;4.20;99.90;;;;;;5074509;28;20187;-38
2020/12/06 04:48:56;;;;;;;24.50;19.48;;;4.20;99.90;;;;;;5074315;28;20277;-38
2020/12/06 04:51:27;;;;;;;26.57;19.30;;;4.30;99.90;;;;;;5074583;28;20226;-40
2020/12/06 04:54:02;;;;;;;28.00;18.57;;;4.30;99.90;;;;;;5073962;28;20730;-37
2020/12/06 04:56:29;;;;;;;25.93;19.33;;;4.30;99.90;;;;;;5074443;28;20230;-38
2020/12/06 04:58:58;;;;;;;26.10;20.20;;;4.30;99.90;;;;;;5074107;28;20313;-38
2020/12/06 05:01:30;;;;;;;25.20;19.02;;;4.40;99.90;;;;;;5075780;22;20251;-37
2020/12/06 05:03:59;;;;;;;27.03;20.70;;;4.30;99.90;;;;;;5031486;28;20298;-37
2020/12/06 05:06:29;;;;;;;22.80;19.07;;;4.30;99.90;;;;;;5033677;28;20286;-38
2020/12/06 05:08:58;;;;;;;24.13;18.13;;;4.20;99.90;;;;;;5033369;28;20663;-38
2020/12/06 05:11:26;;;;;;;23.77;18.10;;;4.20;99.90;;;;;;5033936;28;20251;-39
2020/12/06 05:13:52;;;;;;;24.93;19.73;;;4.30;99.90;;;;;;5034455;28;20308;-39
2020/12/06 05:16:21;;;;;;;23.37;18.47;;;4.30;99.90;;;;;;5034221;28;20235;-38
2020/12/06 05:18:48;;;;;;;23.92;19.73;;;4.30;99.90;;;;;;5033614;28;20226;-38
2020/12/06 05:21:14;;;;;;;25.20;19.83;;;4.30;99.90;;;;;;5033905;28;20224;-39
2020/12/06 05:23:41;;;;;;;27.87;19.90;;;4.30;99.90;;;;;;5034073;28;20298;-38
2020/12/06 05:26:09;;;;;;;25.63;19.47;;;4.30;99.90;;;;;;5018224;28;20562;-37
2020/12/06 05:28:36;;;;;;;25.17;19.33;;;4.40;99.90;;;;;;4976952;28;20224;-38
2020/12/06 05:31:03;;;;;;;24.07;19.93;;;4.30;99.90;;;;;;4976728;28;20284;-38
2020/12/06 05:33:30;;;;;;;24.83;19.27;;;4.30;99.90;;;;;;4994372;28;20216;-38
2020/12/06 05:36:00;;;;;;;23.33;19.77;;;4.40;99.90;;;;;;4994157;28;20213;-37
2020/12/06 05:38:27;;;;;;;26.05;19.92;;;4.40;99.90;;;;;;4994065;28;20233;-37
2020/12/06 05:40:57;;;;;;;26.30;19.47;;;4.40;99.90;;;;;;4994165;28;20225;-38
2020/12/06 05:43:28;;;;;;;25.83;21.13;;;4.40;99.90;;;;;;4994310;28;20245;-37
2020/12/06 05:46:04;;;;;;;28.05;20.25;;;4.40;99.90;;;;;;4994405;28;20288;-40
2020/12/06 05:48:32;;;;;;;25.55;19.10;;;4.30;99.90;;;;;;4993691;28;20284;-39
2020/12/06 05:51:00;;;;;;;27.90;21.27;;;4.30;99.90;;;;;;4993718;28;20228;-37
2020/12/06 05:53:28;;;;;;;26.63;21.53;;;4.30;99.90;;;;;;4994082;28;20240;-40
2020/12/06 05:56:00;;;;;;;25.80;18.80;;;4.30;99.90;;;;;;4994104;28;20201;-37
2020/12/06 05:58:26;;;;;;;26.63;20.03;;;4.20;99.90;;;;;;4993505;28;20271;-37
2020/12/06 06:00:57;;;;;;;26.75;20.17;;;4.30;99.90;;;;;;4993983;28;20231;-41
2020/12/06 06:03:29;;;;;;;25.43;20.43;;;4.30;99.90;;;;;;4994083;28;20549;-40
2020/12/06 06:05:57;;;;;;;27.48;21.98;;;4.40;99.90;;;;;;4976769;28;20212;-39
2020/12/06 06:08:28;;;;;;;27.83;21.93;;;4.40;99.90;;;;;;4976315;28;20197;-38
2020/12/06 06:11:20;;;;;;;27.77;19.30;;;4.50;99.90;;;;;;4993682;28;20243;-38
2020/12/06 06:13:52;;;;;;;28.30;19.93;;;4.50;99.90;;;;;;4991118;28;20284;-38
2020/12/06 06:16:20;;;;;;;25.50;20.07;;;4.40;99.90;;;;;;4994249;28;20674;-38
2020/12/06 06:18:49;;;;;;;23.23;19.73;;;4.40;99.90;;;;;;4996231;28;20229;-37
2020/12/06 06:21:18;;;;;;;26.63;20.57;;;4.40;99.90;;;;;;4978363;28;20308;-37
2020/12/06 06:23:48;;;;;;;30.10;22.47;;;4.40;99.90;;;;;;4993779;28;20213;-40
2020/12/06 06:26:17;;;;;;;34.63;25.70;;;4.30;99.90;;;;;;4993284;28;20296;-38
2020/12/06 06:28:45;;;;;;;41.57;30.10;;;4.40;99.90;;;;;;4975730;28;20282;-38
2020/12/06 06:31:12;;;;;;;31.10;22.57;;;4.40;99.90;;;;;;4993363;28;20333;-38
2020/12/06 06:33:39;;;;;;;33.00;22.63;;;4.40;99.90;;;;;;4993538;28;20283;-39
2020/12/06 06:36:09;;;;;;;28.37;20.47;;;4.50;99.90;;;;;;4993151;28;20571;-39
2020/12/06 06:38:40;;;;;;;29.70;22.43;;;4.50;99.90;;;;;;4992716;28;20279;-38
2020/12/06 06:41:07;;;;;;;26.43;21.00;;;4.40;99.90;;;;;;4992443;28;20249;-39
2020/12/06 06:43:35;;;;;;;28.70;21.77;;;4.40;99.90;;;;;;4993072;28;20206;-39
2020/12/06 06:46:13;;;;;;;27.53;20.97;;;4.40;99.90;;;;;;4993143;28;20563;-37
2020/12/06 06:48:40;;;;;;;25.80;21.57;;;4.40;99.90;;;;;;4993287;28;20209;-38
2020/12/06 06:51:07;;;;;;;27.43;22.20;;;4.40;99.90;;;;;;4992841;28;20651;-39
2020/12/06 06:53:34;;;;;;;26.23;21.13;;;4.40;99.90;;;;;;4993150;28;20197;-40
2020/12/06 06:56:01;;;;;;;26.13;21.17;;;4.50;99.90;;;;;;4993268;28;20202;-38
2020/12/06 06:58:31;;;;;;;26.65;22.45;;;4.50;99.90;;;;;;4992194;28;20312;-38
2020/12/06 07:01:20;;;;;;;27.77;22.10;;;4.50;99.90;;;;;;4975392;28;20221;-38
2020/12/06 07:03:49;;;;;;;29.17;21.33;;;4.40;99.90;;;;;;4992971;28;20201;-39
2020/12/06 07:06:45;;;;;;;30.10;22.90;;;4.50;99.90;;;;;;4992768;28;20191;-38
2020/12/06 07:09:12;;;;;;;26.70;22.20;;;4.40;99.90;;;;;;4992137;28;20202;-38
2020/12/06 07:11:39;;;;;;;27.23;20.53;;;4.50;99.90;;;;;;4992144;28;20268;-37
2020/12/06 07:14:06;;;;;;;27.20;21.57;;;4.40;99.90;;;;;;4992556;28;20248;-38
2020/12/06 07:16:32;;;;;;;28.83;23.27;;;4.50;99.90;;;;;;4992954;28;20695;-38
2020/12/06 07:18:59;;;;;;;30.43;22.30;;;4.50;99.90;;;;;;4993550;28;20689;-37
2020/12/06 07:21:31;;;;;;;52.70;43.23;;;4.40;99.90;;;;;;4995162;28;20240;-39
2020/12/06 07:24:01;;;;;;;42.13;29.70;;;4.40;99.90;;;;;;5012079;28;20252;-39
2020/12/06 07:26:28;;;;;;;41.97;31.43;;;4.40;99.90;;;;;;5011757;28;20232;-37
2020/12/06 07:28:55;;;;;;;48.30;35.50;;;4.40;99.90;;;;;;5011896;28;20197;-39
2020/12/06 07:31:22;;;;;;;169.00;110.70;;;4.40;99.90;;;;;;5011568;28;20220;-38
2020/12/06 07:33:49;;;;;;;47.87;34.63;;;4.60;99.90;;;;;;5011903;28;20254;-39
2020/12/06 07:36:16;;;;;;;81.83;59.30;;;4.60;99.90;;;;;;4994701;28;20258;-39
2020/12/06 07:38:43;;;;;;;37.53;28.60;;;4.50;99.90;;;;;;5011936;28;20216;-38
2020/12/06 07:41:11;;;;;;;33.63;23.85;;;4.50;99.90;;;;;;5011969;28;20282;-38
2020/12/06 07:43:39;;;;;;;35.13;25.87;;;4.50;99.90;;;;;;5012160;28;20283;-39
2020/12/06 07:46:13;;;;;;;31.20;23.92;;;4.50;99.90;;;;;;5012171;28;20230;-39
2020/12/06 07:48:39;;;;;;;26.53;21.73;;;4.40;99.90;;;;;;5017309;28;20204;-39
2020/12/06 07:51:06;;;;;;;28.43;22.90;;;4.40;99.90;;;;;;5024530;28;20240;-40
2020/12/06 07:53:47;;;;;;;30.20;23.87;;;4.40;99.90;;;;;;5024473;28;20205;-39
2020/12/06 07:56:18;;;;;;;31.27;23.33;;;4.40;99.90;;;;;;5025540;28;20230;-38
2020/12/06 07:59:03;;;;;;;33.37;25.00;;;4.40;99.90;;;;;;5024456;28;20293;-39
2020/12/06 08:01:30;;;;;;;30.63;23.80;;;4.40;99.90;;;;;;5012333;28;20263;-41
2020/12/06 08:03:58;;;;;;;34.93;24.03;;;4.60;99.90;;;;;;5003863;28;20746;-39
2020/12/06 08:06:28;;;;;;;30.20;22.63;;;4.40;99.90;;;;;;5014499;28;20259;-38
2020/12/06 08:08:58;;;;;;;32.77;24.67;;;4.40;99.90;;;;;;5013127;28;20223;-38
2020/12/06 08:11:31;;;;;;;31.57;23.43;;;4.40;99.90;;;;;;5012006;28;20650;-38
2020/12/06 08:13:58;;;;;;;34.73;26.37;;;4.50;99.90;;;;;;5012172;28;20204;-39
2020/12/06 08:16:24;;;;;;;42.63;30.87;;;4.50;99.90;;;;;;5011853;28;20287;-37
2020/12/06 08:19:01;;;;;;;40.30;27.70;;;4.50;99.90;;;;;;5012212;28;20224;-40
2020/12/06 08:21:42;;;;;;;38.40;28.10;;;4.50;99.90;;;;;;5012034;28;20228;-40
2020/12/06 08:24:19;;;;;;;33.53;25.10;;;4.50;99.90;;;;;;5012562;28;20201;-37
2020/12/06 08:26:47;;;;;;;32.83;24.77;;;4.60;99.90;;;;;;5011273;28;20296;-37
2020/12/06 08:29:14;;;;;;;33.33;24.60;;;4.60;99.90;;;;;;5012217;28;20204;-37
2020/12/06 08:31:40;;;;;;;36.23;26.63;;;4.60;99.90;;;;;;5011837;28;20220;-38
2020/12/06 08:34:08;;;;;;;39.60;27.30;;;4.60;99.90;;;;;;5011860;28;20664;-37
2020/12/06 08:36:35;;;;;;;31.77;25.37;;;4.60;99.90;;;;;;5011983;28;20232;-38
2020/12/06 08:39:02;;;;;;;33.80;24.57;;;4.60;99.90;;;;;;5011467;28;20550;-37
2020/12/06 08:41:29;;;;;;;38.03;26.03;;;4.70;99.90;;;;;;5011933;28;20225;-39
2020/12/06 08:44:03;;;;;;;33.30;24.33;;;4.70;99.90;;;;;;5012467;28;20203;-38
2020/12/06 08:46:31;;;;;;;35.13;24.37;;;4.60;99.90;;;;;;5012396;28;20224;-38
2020/12/06 08:49:00;;;;;;;32.57;25.13;;;4.70;99.90;;;;;;5011729;28;20251;-37
2020/12/06 08:51:28;;;;;;;34.40;24.93;;;4.70;99.90;;;;;;5012195;28;20240;-38
2020/12/06 08:53:55;;;;;;;30.57;24.47;;;4.60;99.90;;;;;;5011493;28;20211;-38
2020/12/06 08:56:30;;;;;;;32.13;24.38;;;4.60;99.90;;;;;;5012249;28;20201;-38
2020/12/06 08:59:01;;;;;;;35.93;25.50;;;4.60;99.90;;;;;;5011505;28;20322;-38
2020/12/06 09:01:28;;;;;;;34.33;25.33;;;4.60;99.90;;;;;;5012310;28;20229;-38
2020/12/06 09:03:55;;;;;;;56.70;39.87;;;4.60;99.90;;;;;;5011605;28;20242;-39
2020/12/06 09:06:21;;;;;;;176.93;122.50;;;4.60;99.90;;;;;;4997304;28;20208;-38
2020/12/06 09:08:48;;;;;;;37.37;29.00;;;4.70;99.90;;;;;;5014646;28;20196;-39
2020/12/06 09:11:16;;;;;;;41.70;30.50;;;4.80;99.90;;;;;;5011710;28;20707;-39
2020/12/06 09:13:43;;;;;;;107.65;63.42;;;4.80;99.90;;;;;;5015599;28;20225;-41
2020/12/06 09:16:10;;;;;;;37.27;26.67;;;4.80;99.90;;;;;;5013651;28;20228;-39
2020/12/06 09:18:38;;;;;;;34.17;25.85;;;4.80;99.90;;;;;;5015803;28;20554;-39
2020/12/06 09:21:05;;;;;;;32.33;24.57;;;4.80;99.90;;;;;;5015822;28;20216;-38
2020/12/06 09:23:32;;;;;;;31.93;25.00;;;4.80;99.90;;;;;;5015214;28;20208;-39
2020/12/06 09:25:59;;;;;;;33.05;24.40;;;4.90;99.90;;;;;;5014963;28;20243;-38
2020/12/06 09:28:26;;;;;;;34.87;23.97;;;4.90;99.90;;;;;;5015055;28;20219;-39
2020/12/06 09:30:53;;;;;;;32.47;24.60;;;4.90;99.90;;;;;;5014668;28;20231;-38
2020/12/06 09:33:21;;;;;;;37.20;25.00;;;4.90;99.90;;;;;;5014965;28;20211;-41
2020/12/06 09:35:48;;;;;;;32.50;24.37;;;4.90;99.90;;;;;;5014960;28;20201;-38
2020/12/06 09:38:14;;;;;;;29.27;22.77;;;4.90;99.90;;;;;;5015262;28;20235;-39
2020/12/06 09:40:41;;;;;;;37.47;26.70;;;4.80;99.90;;;;;;5015188;28;20560;-39
2020/12/06 09:43:07;;;;;;;33.13;26.07;;;4.90;99.90;;;;;;5014556;28;20228;-40
2020/12/06 09:45:34;;;;;;;30.43;23.90;;;4.90;99.90;;;;;;5014267;28;20226;-40
2020/12/06 09:48:00;;;;;;;32.10;24.77;;;4.90;99.90;;;;;;5013060;28;20288;-39
2020/12/06 09:50:28;;;;;;;33.13;23.13;;;4.90;99.90;;;;;;5013871;28;20569;-38
2020/12/06 09:52:54;;;;;;;33.37;24.77;;;4.90;99.90;;;;;;5013531;28;20203;-41
2020/12/06 09:55:21;;;;;;;32.80;25.40;;;4.90;99.90;;;;;;5013309;28;20200;-39
2020/12/06 09:57:48;;;;;;;32.97;24.90;;;4.90;99.90;;;;;;5013232;28;20251;-38
2020/12/06 10:00:14;;;;;;;34.80;25.40;;;4.90;99.90;;;;;;5013388;28;20250;-39
2020/12/06 10:02:42;;;;;;;31.60;24.27;;;4.90;99.90;;;;;;5013600;28;20207;-39
2020/12/06 10:05:08;;;;;;;32.17;24.60;;;4.90;99.90;;;;;;5013712;28;20267;-39
2020/12/06 10:07:36;;;;;;;30.07;23.53;;;4.90;99.90;;;;;;5013944;28;20206;-39
2020/12/06 10:10:02;;;;;;;32.53;25.63;;;5.00;99.90;;;;;;5013455;28;20204;-39
2020/12/06 10:12:29;;;;;;;34.30;25.30;;;5.00;99.90;;;;;;5012945;28;20626;-40
2020/12/06 10:14:55;;;;;;;31.50;23.53;;;5.00;99.90;;;;;;5012980;28;20601;-39
2020/12/06 10:17:22;;;;;;;30.83;24.43;;;5.10;99.90;;;;;;5012894;28;20288;-39
2020/12/06 10:19:48;;;;;;;32.13;24.33;;;5.00;99.90;;;;;;5013079;28;20695;-41
2020/12/06 10:22:15;;;;;;;30.47;23.70;;;5.00;99.90;;;;;;5012843;28;20422;-40
2020/12/06 10:24:42;;;;;;;32.63;25.33;;;5.00;99.90;;;;;;5013275;28;20211;-39
2020/12/06 10:27:09;;;;;;;30.10;24.30;;;5.00;99.90;;;;;;5015045;28;20242;-40
2020/12/06 10:29:35;;;;;;;39.75;28.30;;;5.00;99.90;;;;;;5007370;28;20216;-40
2020/12/06 10:32:02;;;;;;;33.00;25.57;;;5.10;99.90;;;;;;5002689;28;20328;-39
2020/12/06 10:34:28;;;;;;;36.77;27.67;;;5.00;99.90;;;;;;5001317;28;20680;-39
2020/12/06 10:36:58;;;;;;;36.43;25.73;;;5.00;99.90;;;;;;4998931;28;20201;-39
2020/12/06 10:39:25;;;;;;;37.10;26.73;;;5.00;99.90;;;;;;5002184;28;20216;-40
2020/12/06 10:41:54;;;;;;;28.20;23.77;;;5.10;99.90;;;;;;5004134;28;20608;-40
2020/12/06 10:44:21;;;;;;;38.87;25.80;;;5.10;99.90;;;;;;5002381;28;20336;-39
2020/12/06 10:46:48;;;;;;;33.78;23.83;;;5.20;99.90;;;;;;5004159;28;20225;-41
2020/12/06 10:49:15;;;;;;;33.93;25.63;;;5.20;99.90;;;;;;5001818;28;20199;-39
2020/12/06 10:51:43;;;;;;;34.87;26.40;;;5.20;99.90;;;;;;5012716;28;20244;-38
2020/12/06 10:54:10;;;;;;;34.77;26.13;;;5.20;99.90;;;;;;5012758;28;20211;-39
2020/12/06 10:56:39;;;;;;;40.07;27.67;;;5.20;99.90;;;;;;5009460;28;20197;-39
2020/12/06 10:59:07;;;;;;;33.10;26.03;;;5.10;99.90;;;;;;5002324;28;20617;-39
2020/12/06 11:01:34;;;;;;;33.27;25.57;;;5.10;99.90;;;;;;4993818;28;20224;-39
2020/12/06 11:04:02;;;;;;;34.63;26.90;;;5.20;99.90;;;;;;5012439;28;20288;-41
2020/12/06 11:06:29;;;;;;;34.60;26.57;;;5.20;99.90;;;;;;5013763;28;20271;-39
2020/12/06 11:08:56;;;;;;;35.88;26.77;;;5.30;99.90;;;;;;5025375;28;20295;-41
2020/12/06 11:11:24;;;;;;;36.97;27.63;;;5.30;99.90;;;;;;5014466;28;20228;-39
2020/12/06 11:13:51;;;;;;;37.07;27.87;;;5.30;99.90;;;;;;5011931;28;20213;-39
2020/12/06 11:16:20;;;;;;;116.83;79.30;;;5.30;99.90;;;;;;5011756;28;20287;-42
2020/12/06 11:18:48;;;;;;;54.67;42.83;;;5.20;99.90;;;;;;5009812;28;20543;-39
2020/12/06 11:21:15;;;;;;;38.90;30.50;;;5.30;99.90;;;;;;4992709;28;20707;-38
2020/12/06 11:23:42;;;;;;;84.40;58.23;;;5.30;99.90;;;;;;4991639;28;20259;-39
2020/12/06 11:26:09;;;;;;;37.53;27.47;;;5.30;99.90;;;;;;4991895;28;20212;-39
2020/12/06 11:28:35;;;;;;;37.07;29.00;;;5.30;99.90;;;;;;4990888;28;20260;-38
2020/12/06 11:31:02;;;;;;;38.90;27.20;;;5.30;99.90;;;;;;4991636;28;20241;-37
2020/12/06 11:33:29;;;;;;;36.47;27.90;;;5.30;99.90;;;;;;4991594;28;20208;-40
2020/12/06 11:35:56;;;;;;;34.13;27.47;;;5.30;99.90;;;;;;4991523;28;20646;-37
2020/12/06 11:38:23;;;;;;;40.50;29.90;;;5.30;99.90;;;;;;4993159;28;20208;-37
2020/12/06 11:40:49;;;;;;;36.70;27.37;;;5.30;99.90;;;;;;5001326;28;20294;-40
2020/12/06 11:43:16;;;;;;;37.60;27.37;;;5.30;99.90;;;;;;5003374;28;20295;-38
2020/12/06 11:45:42;;;;;;;36.27;27.50;;;5.30;99.90;;;;;;4999721;28;20193;-38
2020/12/06 11:48:09;;;;;;;39.47;28.53;;;5.40;99.90;;;;;;5001294;28;20202;-38
2020/12/06 11:50:36;;;;;;;35.87;26.97;;;5.40;99.90;;;;;;5003075;28;20267;-37
2020/12/06 11:53:03;;;;;;;36.57;27.73;;;5.30;99.90;;;;;;4994897;28;20287;-39
2020/12/06 11:55:31;;;;;;;39.27;30.23;;;5.30;99.90;;;;;;5003368;28;20579;-38
2020/12/06 11:57:57;;;;;;;37.10;29.07;;;5.30;99.90;;;;;;5002334;28;20223;-38
2020/12/06 12:00:24;;;;;;;42.87;30.53;;;5.30;99.90;;;;;;4995999;28;20221;-41
2020/12/06 12:02:50;;;;;;;136.07;89.10;;;5.20;99.90;;;;;;5007141;28;20219;-40
2020/12/06 12:05:17;;;;;;;41.13;30.40;;;5.30;99.90;;;;;;4991943;28;20277;-39
2020/12/06 12:07:44;;;;;;;43.83;32.40;;;5.30;99.90;;;;;;5003179;28;20534;-39
2020/12/06 12:10:12;;;;;;;39.20;28.90;;;5.30;99.90;;;;;;5004856;28;20258;-39
2020/12/06 12:12:38;;;;;;;41.37;29.87;;;5.30;99.90;;;;;;5009471;28;20555;-39
2020/12/06 12:15:06;;;;;;;34.70;27.90;;;5.20;99.90;;;;;;5010046;28;20602;-40
2020/12/06 12:17:33;;;;;;;37.13;29.17;;;5.30;99.90;;;;;;5010034;28;20671;-38
2020/12/06 12:20:00;;;;;;;35.70;26.57;;;5.40;99.90;;;;;;5010420;28;20227;-39
2020/12/06 12:22:28;;;;;;;44.53;30.00;;;5.30;99.90;;;;;;5010377;28;20216;-40
2020/12/06 12:24:55;;;;;;;41.92;31.92;;;5.30;99.90;;;;;;5010796;28;20197;-38
2020/12/06 12:27:22;;;;;;;39.73;29.30;;;5.40;99.90;;;;;;5010852;28;20609;-38
2020/12/06 12:29:48;;;;;;;45.10;31.70;;;5.40;99.90;;;;;;5010877;28;20611;-39
2020/12/06 12:32:15;;;;;;;44.90;31.20;;;5.30;99.90;;;;;;5011238;28;20232;-38
2020/12/06 12:34:41;;;;;;;40.20;30.17;;;5.30;99.90;;;;;;5015837;28;20204;-40
2020/12/06 12:37:08;;;;;;;54.80;39.33;;;5.30;99.90;;;;;;5010996;28;20207;-37
2020/12/06 12:39:35;;;;;;;47.87;36.13;;;5.30;99.90;;;;;;5011178;28;20251;-37